createdAt,value
2019-03-20T00:00:45.402Z,101346.09
2019-03-20T00:03:34.774Z,101338.41
2019-03-20T00:06:23.579Z,101338.35
2019-03-20T00:09:13.091Z,101333.02
2019-03-20T00:12:02.070Z,101334.28
2019-03-20T00:14:51.605Z,101335.09
2019-03-20T00:17:40.547Z,101338.70
2019-03-20T00:20:30.519Z,101333.70
2019-03-20T00:23:19.527Z,101327.94
2019-03-20T00:26:07.967Z,101334.13
2019-03-20T00:28:57.500Z,101321.53
2019-03-20T00:31:46.816Z,101329.84
2019-03-20T00:34:35.829Z,101333.75
2019-03-20T00:37:25.261Z,101328.82
2019-03-20T00:40:13.958Z,101324.26
2019-03-20T00:43:03.083Z,101329.67
2019-03-20T00:45:53.166Z,101336.41
2019-03-20T00:48:42.819Z,101329.16
2019-03-20T00:51:31.464Z,101336.41
2019-03-20T00:54:20.577Z,101339.02
2019-03-20T00:57:10.209Z,101340.73
2019-03-20T00:59:59.762Z,101333.14
2019-03-20T01:02:48.271Z,101334.51
2019-03-20T01:05:37.546Z,101334.09
2019-03-20T01:08:26.400Z,101332.89
2019-03-20T01:11:16.122Z,101333.46
2019-03-20T01:14:04.934Z,101332.42
2019-03-20T01:16:53.916Z,101335.55
2019-03-20T01:19:43.592Z,101330.90
2019-03-20T01:22:32.578Z,101333.55
2019-03-20T01:25:22.040Z,101336.91
2019-03-20T01:28:11.585Z,101330.00
2019-03-20T01:31:01.329Z,101328.23
2019-03-20T01:33:50.357Z,101325.12
2019-03-20T01:36:39.059Z,101329.09
2019-03-20T01:39:27.896Z,101329.14
2019-03-20T01:42:17.046Z,101329.23
2019-03-20T01:45:06.577Z,101329.83
2019-03-20T01:47:56.240Z,101328.55
2019-03-20T01:50:44.993Z,101330.73
2019-03-20T01:53:33.835Z,101331.31
2019-03-20T01:56:23.392Z,101326.62
2019-03-20T01:59:12.941Z,101321.07
2019-03-20T02:02:06.081Z,101322.86
2019-03-20T02:04:55.253Z,101320.27
2019-03-20T02:07:44.912Z,101313.98
2019-03-20T02:10:34.560Z,101316.08
2019-03-20T02:13:24.210Z,101321.92
2019-03-20T02:16:13.832Z,101321.89
2019-03-20T02:19:03.698Z,101326.20
2019-03-20T02:21:53.563Z,101326.39
2019-03-20T02:24:43.385Z,101328.02
2019-03-20T02:27:32.846Z,101329.41
2019-03-20T02:30:22.744Z,101324.61
2019-03-20T02:33:12.443Z,101333.22
2019-03-20T02:36:02.381Z,101338.09
2019-03-20T02:38:51.476Z,101344.03
2019-03-20T02:41:41.009Z,101348.36
2019-03-20T02:44:29.529Z,101339.97
2019-03-20T02:47:18.917Z,101340.01
2019-03-20T02:50:08.618Z,101345.31
2019-03-20T02:52:57.513Z,101349.61
2019-03-20T02:55:46.524Z,101348.40
2019-03-20T02:58:35.389Z,101351.38
2019-03-20T03:01:25.075Z,101350.23
2019-03-20T03:04:14.299Z,101346.37
2019-03-20T03:07:03.670Z,101352.36
2019-03-20T03:09:52.897Z,101346.85
2019-03-20T03:12:42.172Z,101347.80
2019-03-20T03:15:31.727Z,101354.13
2019-03-20T03:18:20.255Z,101355.84
2019-03-20T03:21:09.119Z,101363.14
2019-03-20T03:23:58.424Z,101373.83
2019-03-20T03:26:48.269Z,101366.13
2019-03-20T03:29:37.553Z,101375.59
2019-03-20T03:32:26.174Z,101378.17
2019-03-20T03:35:19.088Z,101379.88
2019-03-20T03:38:06.606Z,101382.44
2019-03-20T03:40:55.344Z,101379.44
2019-03-20T03:43:45.312Z,101374.77
2019-03-20T03:46:34.542Z,101383.27
2019-03-20T03:49:23.103Z,101375.25
2019-03-20T03:52:12.955Z,101382.92
2019-03-20T03:55:01.289Z,101383.69
2019-03-20T03:58:03.410Z,101387.58
2019-03-20T04:00:53.567Z,101390.11
2019-03-20T04:07:35.356Z,101394.82
2019-03-20T04:10:44.735Z,101398.12
2019-03-20T04:13:36.515Z,101396.95
2019-03-20T04:20:47.349Z,101408.91
2019-03-20T04:23:38.011Z,101402.17
2019-03-20T04:26:27.959Z,101400.48
2019-03-20T04:29:17.165Z,101401.29
2019-03-20T04:32:06.203Z,101397.45
2019-03-20T04:34:55.168Z,101391.52
2019-03-20T04:37:44.788Z,101402.23
2019-03-20T04:40:33.475Z,101398.83
2019-03-20T04:43:22.902Z,101403.52
2019-03-20T04:46:12.423Z,101398.89
2019-03-20T04:49:01.898Z,101401.78
2019-03-20T04:51:50.904Z,101397.99
2019-03-20T04:54:40.936Z,101403.11
2019-03-20T04:57:29.809Z,101398.85
2019-03-20T05:00:19.066Z,101402.58
2019-03-20T05:03:08.563Z,101403.37
2019-03-20T05:05:57.709Z,101405.53
2019-03-20T05:08:46.532Z,101409.36
2019-03-20T05:11:36.048Z,101409.41
2019-03-20T05:14:25.625Z,101406.00
2019-03-20T05:17:15.060Z,101405.17
2019-03-20T05:20:05.232Z,101405.17
2019-03-20T05:22:54.381Z,101408.58
2019-03-20T05:25:43.990Z,101403.92
2019-03-20T05:28:32.739Z,101412.81
2019-03-20T05:31:22.119Z,101414.09
2019-03-20T05:34:10.792Z,101415.83
2019-03-20T05:37:09.807Z,101425.20
2019-03-20T05:39:49.963Z,101437.13
2019-03-20T05:42:39.182Z,101439.70
2019-03-20T05:45:28.052Z,101452.02
2019-03-20T05:48:17.483Z,101456.66
2019-03-20T05:51:06.483Z,101469.41
2019-03-20T05:53:56.139Z,101477.87
2019-03-20T05:56:45.971Z,101478.38
2019-03-20T05:59:35.378Z,101483.46
2019-03-20T06:02:25.802Z,101483.84
2019-03-20T06:05:14.534Z,101482.15
2019-03-20T06:08:03.918Z,101486.83
2019-03-20T06:10:53.961Z,101497.89
2019-03-20T06:13:44.789Z,101509.36
2019-03-20T06:16:33.505Z,101509.29
2019-03-20T06:19:23.163Z,101512.66
2019-03-20T06:22:12.296Z,101517.67
2019-03-20T06:25:01.021Z,101518.48
2019-03-20T06:27:52.923Z,101522.64
2019-03-20T06:30:41.567Z,101523.80
2019-03-20T06:33:30.248Z,101520.79
2019-03-20T06:36:19.582Z,101528.22
2019-03-20T06:39:08.593Z,101532.03
2019-03-20T06:41:57.599Z,101528.58
2019-03-20T06:44:46.239Z,101531.57
2019-03-20T06:47:35.916Z,101525.88
2019-03-20T06:50:24.425Z,101531.25
2019-03-20T06:53:13.582Z,101531.17
2019-03-20T06:56:03.164Z,101527.59
2019-03-20T06:59:15.721Z,101527.64
2019-03-20T07:02:06.330Z,101525.81
2019-03-20T07:05:39.836Z,101532.86
2019-03-20T07:08:32.189Z,101530.03
2019-03-20T07:11:20.299Z,101534.59
2019-03-20T07:14:09.180Z,101539.91
2019-03-20T07:16:59.295Z,101540.47
2019-03-20T07:19:48.520Z,101546.73
2019-03-20T07:22:38.321Z,101539.61
2019-03-20T07:25:27.263Z,101541.83
2019-03-20T07:28:17.268Z,101544.11
2019-03-20T07:31:15.283Z,101535.19
2019-03-20T07:33:57.762Z,101546.93
2019-03-20T07:36:47.166Z,101545.07
2019-03-20T07:39:36.822Z,101549.89
2019-03-20T07:42:26.220Z,101549.92
2019-03-20T07:45:15.744Z,101554.35
2019-03-20T07:48:05.718Z,101563.95
2019-03-20T07:50:55.403Z,101563.64
2019-03-20T07:53:44.916Z,101552.98
2019-03-20T07:56:33.678Z,101564.11
2019-03-20T07:59:23.253Z,101567.97
2019-03-20T08:02:12.781Z,101559.85
2019-03-20T08:05:02.322Z,101563.05
2019-03-20T08:07:51.945Z,101567.28
2019-03-20T08:10:41.351Z,101572.53
2019-03-20T08:13:30.728Z,101574.95
2019-03-20T08:16:20.155Z,101578.11
2019-03-20T08:19:08.766Z,101579.70
2019-03-20T08:21:57.589Z,101582.69
2019-03-20T08:24:47.793Z,101579.77
2019-03-20T08:27:36.576Z,101582.09
2019-03-20T08:30:25.807Z,101579.37
2019-03-20T08:33:14.604Z,101591.25
2019-03-20T08:36:04.480Z,101584.84
2019-03-20T08:38:53.887Z,101590.51
2019-03-20T08:41:43.477Z,101590.84
2019-03-20T08:44:32.639Z,101595.55
2019-03-20T08:47:22.610Z,101599.24
2019-03-20T08:50:14.561Z,101597.03
2019-03-20T08:53:04.039Z,101595.16
2019-03-20T08:55:53.663Z,101596.99
2019-03-20T08:58:42.355Z,101601.58
2019-03-20T09:01:32.304Z,101603.77
2019-03-20T09:04:21.792Z,101608.72
2019-03-20T09:07:11.248Z,101612.38
2019-03-20T09:10:00.425Z,101606.76
2019-03-20T09:12:49.844Z,101614.70
2019-03-20T09:15:38.736Z,101613.07
2019-03-20T09:18:27.223Z,101618.77
2019-03-20T09:21:17.030Z,101618.20
2019-03-20T09:24:06.266Z,101625.96
2019-03-20T09:26:55.801Z,101614.78
2019-03-20T09:29:44.959Z,101623.20
2019-03-20T09:32:33.529Z,101623.33
2019-03-20T09:35:23.287Z,101623.34
2019-03-20T09:38:12.851Z,101625.75
2019-03-20T09:41:01.898Z,101620.34
2019-03-20T09:43:51.632Z,101623.53
2019-03-20T09:46:40.766Z,101621.77
2019-03-20T09:49:30.489Z,101629.50
2019-03-20T09:52:19.423Z,101623.63
2019-03-20T09:55:09.149Z,101627.88
2019-03-20T09:57:58.037Z,101624.43
2019-03-20T10:00:47.446Z,101624.28
2019-03-20T10:03:36.857Z,101627.00
2019-03-20T10:06:26.675Z,101624.88
2019-03-20T10:09:16.039Z,101628.28
2019-03-20T10:12:05.013Z,101625.19
2019-03-20T10:14:54.148Z,101616.88
2019-03-20T10:17:43.560Z,101618.41
2019-03-20T10:20:32.722Z,101623.41
2019-03-20T10:23:22.023Z,101617.09
2019-03-20T10:26:11.287Z,101616.70
2019-03-20T10:29:01.236Z,101611.91
2019-03-20T10:31:49.956Z,101610.05
2019-03-20T10:34:39.806Z,101606.29
2019-03-20T10:37:28.958Z,101600.31
2019-03-20T10:40:19.516Z,101614.80
2019-03-20T10:43:09.373Z,101615.42
2019-03-20T10:45:58.809Z,101609.90
2019-03-20T10:48:47.743Z,101611.92
2019-03-20T10:51:36.922Z,101605.53
2019-03-20T10:54:26.710Z,101603.11
2019-03-20T10:57:15.349Z,101601.95
2019-03-20T11:00:06.114Z,101605.71
2019-03-20T11:02:56.800Z,101607.46
2019-03-20T11:05:46.010Z,101600.83
2019-03-20T11:08:54.378Z,101606.63
2019-03-20T11:12:04.029Z,101598.55
2019-03-20T11:14:55.319Z,101593.64
2019-03-20T11:17:45.921Z,101597.32
2019-03-20T11:20:39.592Z,101598.23
2019-03-20T11:26:37.794Z,101587.00
2019-03-20T11:29:27.946Z,101589.02
2019-03-20T11:32:17.142Z,101589.08
2019-03-20T11:35:06.362Z,101578.50
2019-03-20T11:37:55.167Z,101579.38
2019-03-20T11:40:44.828Z,101578.87
2019-03-20T11:43:34.263Z,101581.19
2019-03-20T11:46:23.611Z,101578.52
2019-03-20T11:49:12.448Z,101576.29
2019-03-20T11:52:01.979Z,101572.05
2019-03-20T11:54:51.512Z,101577.03
2019-03-20T11:57:40.912Z,101561.14
2019-03-20T12:00:30.708Z,101549.91
2019-03-20T12:03:20.376Z,101565.56
2019-03-20T12:06:09.052Z,101555.68
2019-03-20T12:08:57.408Z,101550.23
2019-03-20T12:11:46.451Z,101546.33
2019-03-20T12:14:35.465Z,101544.27
2019-03-20T12:17:25.281Z,101545.17
2019-03-20T12:20:18.711Z,101540.09
2019-03-20T12:26:29.722Z,101533.92
2019-03-20T12:30:00.325Z,101525.44
2019-03-20T12:33:11.016Z,101517.11
2019-03-20T12:36:00.191Z,101520.95
2019-03-20T12:38:49.414Z,101497.69
2019-03-20T12:41:39.018Z,101513.91
2019-03-20T12:44:28.457Z,101501.15
2019-03-20T12:47:17.659Z,101503.69
2019-03-20T12:50:07.912Z,101492.84
2019-03-20T12:52:57.514Z,101496.11
2019-03-20T12:55:47.373Z,101495.20
2019-03-20T12:58:36.684Z,101485.53
2019-03-20T13:01:25.218Z,101493.66
2019-03-20T13:04:14.699Z,101493.66
2019-03-20T13:07:04.058Z,101495.92
2019-03-20T13:09:59.572Z,101496.04
2019-03-20T13:12:44.490Z,101497.42
2019-03-20T13:15:53.840Z,101490.55
2019-03-20T13:18:44.341Z,101486.02
2019-03-20T13:21:34.517Z,101482.26
2019-03-20T13:24:24.713Z,101476.45
2019-03-20T13:27:14.063Z,101478.19
2019-03-20T13:30:02.878Z,101478.53
2019-03-20T13:32:51.716Z,101475.53
2019-03-20T13:35:41.145Z,101475.74
2019-03-20T13:38:30.383Z,101475.77
2019-03-20T13:41:19.674Z,101476.72
2019-03-20T13:44:09.028Z,101471.61
2019-03-20T13:46:58.201Z,101469.69
2019-03-20T13:49:46.864Z,101452.06
2019-03-20T13:52:35.488Z,101462.50
2019-03-20T13:55:25.290Z,101457.05
2019-03-20T13:58:14.751Z,101463.34
2019-03-20T14:01:03.452Z,101464.22
2019-03-20T14:03:52.615Z,101458.69
2019-03-20T14:06:41.552Z,101453.89
2019-03-20T14:09:31.577Z,101452.66
2019-03-20T14:12:21.169Z,101447.57
2019-03-20T14:15:10.317Z,101450.41
2019-03-20T14:17:59.578Z,101446.59
2019-03-20T14:20:48.758Z,101441.11
2019-03-20T14:23:38.114Z,101450.20
2019-03-20T14:26:26.975Z,101448.64
2019-03-20T14:29:16.291Z,101449.61
2019-03-20T14:32:04.931Z,101450.44
2019-03-20T14:34:53.564Z,101443.27
2019-03-20T14:37:42.987Z,101447.79
2019-03-20T14:40:35.976Z,101449.56
2019-03-20T14:43:22.634Z,101438.08
2019-03-20T14:46:13.123Z,101443.90
2019-03-20T14:49:01.571Z,101443.73
2019-03-20T14:51:51.307Z,101445.21
2019-03-20T14:54:40.491Z,101453.55
2019-03-20T14:57:29.641Z,101443.39
2019-03-20T15:00:20.956Z,101443.39
2019-03-20T15:03:10.687Z,101441.27
2019-03-20T15:06:00.197Z,101442.80
2019-03-20T15:08:49.723Z,101447.20
2019-03-20T15:11:39.306Z,101439.61
2019-03-20T15:14:28.834Z,101435.14
2019-03-20T15:17:18.191Z,101429.98
2019-03-20T15:20:07.457Z,101435.14
2019-03-20T15:22:56.827Z,101443.92
2019-03-20T15:25:46.583Z,101425.74
2019-03-20T15:28:35.468Z,101425.74
2019-03-20T15:31:24.980Z,101447.15
2019-03-20T15:34:14.377Z,101446.91
2019-03-20T15:37:03.927Z,101453.48
2019-03-20T15:39:53.489Z,101453.08
2019-03-20T15:42:42.465Z,101457.59
2019-03-20T15:45:31.012Z,101448.47
2019-03-20T15:48:20.247Z,101452.39
2019-03-20T15:51:09.832Z,101444.03
2019-03-20T15:53:58.450Z,101439.09
2019-03-20T15:56:46.937Z,101439.09
2019-03-20T15:59:35.312Z,101435.50
2019-03-20T16:09:26.690Z,101444.94
2019-03-20T16:12:15.922Z,101439.64
2019-03-20T16:15:07.061Z,101440.45
2019-03-20T16:17:56.734Z,101436.07
2019-03-20T16:20:45.411Z,101438.41
2019-03-20T16:23:34.390Z,101440.74
2019-03-20T16:26:23.835Z,101441.66
2019-03-20T16:29:12.543Z,101444.84
2019-03-20T16:32:02.075Z,101446.90
2019-03-20T16:34:50.673Z,101444.72
2019-03-20T16:37:39.885Z,101440.60
2019-03-20T16:40:28.272Z,101443.50
2019-03-20T16:43:17.492Z,101445.70
2019-03-20T16:46:06.137Z,101447.14
2019-03-20T16:48:54.795Z,101446.02
2019-03-20T16:51:44.498Z,101448.62
2019-03-20T16:54:32.996Z,101451.84
2019-03-20T16:57:22.458Z,101449.80
2019-03-20T17:00:14.671Z,101453.60
2019-03-20T17:03:03.461Z,101454.22
2019-03-20T17:05:52.732Z,101449.14
2019-03-20T17:08:41.896Z,101453.44
2019-03-20T17:11:38.374Z,101453.27
2019-03-20T17:14:21.115Z,101453.73
2019-03-20T17:17:11.660Z,101460.50
2019-03-20T17:20:01.058Z,101458.77
2019-03-20T17:22:49.979Z,101464.39
2019-03-20T17:25:39.378Z,101469.80
2019-03-20T17:28:28.255Z,101463.08
2019-03-20T17:31:17.410Z,101465.54
2019-03-20T17:34:06.339Z,101466.77
2019-03-20T17:36:55.875Z,101463.82
2019-03-20T17:39:44.595Z,101461.93
2019-03-20T17:42:33.991Z,101459.22
2019-03-20T17:45:23.457Z,101462.20
2019-03-20T17:48:13.141Z,101467.73
2019-03-20T17:51:02.591Z,101468.37
2019-03-20T17:53:52.146Z,101460.66
2019-03-20T17:56:41.628Z,101466.42
2019-03-20T17:59:31.615Z,101472.53
2019-03-20T18:02:24.205Z,101469.39
2019-03-20T18:05:12.654Z,101468.91
2019-03-20T18:08:01.021Z,101480.64
2019-03-20T18:10:50.762Z,101479.94
2019-03-20T18:13:40.104Z,101479.86
2019-03-20T18:20:12.605Z,101489.02
2019-03-20T18:23:01.726Z,101490.87
2019-03-20T18:25:51.258Z,101490.46
2019-03-20T18:36:31.734Z,101491.58
2019-03-20T18:46:36.132Z,101497.43
2019-03-20T18:49:24.714Z,101503.04
2019-03-20T18:59:32.598Z,101504.66
2019-03-20T19:06:07.990Z,101508.63
2019-03-20T19:12:11.045Z,101518.30
2019-03-20T19:15:00.823Z,101521.48
2019-03-20T19:17:51.427Z,101522.48
2019-03-20T19:20:40.204Z,101534.48
2019-03-20T19:23:29.484Z,101536.64
2019-03-20T19:26:18.999Z,101533.78
2019-03-20T19:29:08.889Z,101538.52
2019-03-20T19:31:57.781Z,101539.57
2019-03-20T19:34:46.647Z,101537.98
2019-03-20T19:37:35.963Z,101544.95
2019-03-20T19:40:25.182Z,101547.62
2019-03-20T19:43:14.050Z,101538.78
2019-03-20T19:46:03.476Z,101539.91
2019-03-20T19:48:52.105Z,101542.47
2019-03-20T19:51:41.685Z,101545.29
2019-03-20T19:54:31.374Z,101545.53
2019-03-20T19:57:20.336Z,101544.09
2019-03-20T20:00:12.008Z,101545.14
2019-03-20T20:03:01.839Z,101549.24
2019-03-20T20:05:51.197Z,101551.38
2019-03-20T20:08:40.607Z,101546.37
2019-03-20T20:11:29.269Z,101549.59
2019-03-20T20:14:20.173Z,101551.73
2019-03-20T20:17:09.761Z,101549.65
2019-03-20T20:19:58.501Z,101551.66
2019-03-20T20:22:48.010Z,101544.10
2019-03-20T20:25:37.486Z,101552.05
2019-03-20T20:28:26.362Z,101552.70
2019-03-20T20:31:15.825Z,101550.25
2019-03-20T20:34:05.417Z,101554.98
2019-03-20T20:36:54.874Z,101553.68
2019-03-20T20:39:44.463Z,101563.35
2019-03-20T20:42:42.574Z,101566.92
2019-03-20T20:45:23.907Z,101571.28
2019-03-20T20:48:13.290Z,101567.70
2019-03-20T20:51:02.530Z,101570.94
2019-03-20T20:53:52.436Z,101579.13
2019-03-20T20:56:42.266Z,101579.82
2019-03-20T20:59:31.092Z,101579.84
2019-03-20T21:02:20.618Z,101577.47
2019-03-20T21:05:09.300Z,101583.32
2019-03-20T21:07:58.651Z,101574.17
2019-03-20T21:10:47.235Z,101568.70
2019-03-20T21:13:36.806Z,101571.10
2019-03-20T21:16:27.030Z,101570.80
2019-03-20T21:19:35.418Z,101576.11
2019-03-20T21:23:01.002Z,101578.77
2019-03-20T21:25:50.949Z,101577.06
2019-03-20T21:29:26.397Z,101569.51
2019-03-20T21:32:29.866Z,101573.69
2019-03-20T21:35:56.212Z,101577.55
2019-03-20T21:38:46.362Z,101579.67
2019-03-20T21:42:11.634Z,101568.01
2019-03-20T21:45:25.319Z,101574.84
2019-03-20T21:48:15.205Z,101578.92
2019-03-20T21:51:13.485Z,101572.73
2019-03-20T21:54:41.976Z,101571.81
2019-03-20T21:57:40.157Z,101566.83
2019-03-20T22:01:09.736Z,101566.66
2019-03-20T22:03:58.997Z,101570.34
2019-03-20T22:07:23.123Z,101564.42
2019-03-20T22:10:56.346Z,101567.30
2019-03-20T22:13:59.647Z,101562.72
2019-03-20T22:28:40.417Z,101564.80
2019-03-20T22:31:30.446Z,101563.20
2019-03-20T22:34:58.088Z,101568.38
2019-03-20T22:37:48.013Z,101567.44
2019-03-20T22:41:14.130Z,101564.11
2019-03-20T22:44:05.590Z,101568.30
2019-03-20T22:50:58.306Z,101566.66
2019-03-20T22:54:14.451Z,101568.72
2019-03-20T22:57:13.056Z,101563.11
2019-03-20T23:00:02.938Z,101561.67
2019-03-20T23:03:07.716Z,101565.17
2019-03-20T23:05:57.133Z,101568.08
2019-03-20T23:08:46.902Z,101564.06
2019-03-20T23:11:37.013Z,101560.02
2019-03-20T23:14:26.755Z,101564.55
2019-03-20T23:17:16.961Z,101567.66
2019-03-20T23:20:08.529Z,101570.33
2019-03-20T23:22:58.483Z,101566.97
2019-03-20T23:25:48.739Z,101576.40
2019-03-20T23:28:38.950Z,101564.52
2019-03-20T23:31:28.111Z,101565.83
2019-03-20T23:34:18.132Z,101560.59
2019-03-20T23:37:08.310Z,101558.60
2019-03-20T23:39:59.205Z,101554.98
2019-03-20T23:42:49.444Z,101557.14
2019-03-20T23:45:39.219Z,101560.36
2019-03-20T23:48:44.962Z,101555.81
2019-03-20T23:51:35.015Z,101554.67
2019-03-20T23:54:28.634Z,101557.67
2019-03-20T23:57:18.118Z,101561.53
